sensor_id;sensor_type;location;lat;lon;timestamp;P1;durP1;ratioP1;P2;durP2;ratioP2
74375;SDS011;62812;55.188;61.302;2023-02-01T00:00:29;16.20;;;6.45;;
74375;SDS011;62812;55.188;61.302;2023-02-01T00:02:56;17.27;;;6.25;;
74375;SDS011;62812;55.188;61.302;2023-02-01T00:05:23;17.05;;;6.75;;
74375;SDS011;62812;55.188;61.302;2023-02-01T00:07:49;17.08;;;6.53;;
74375;SDS011;62812;55.188;61.302;2023-02-01T00:10:16;15.43;;;6.75;;
74375;SDS011;62812;55.188;61.302;2023-02-01T00:12:44;17.40;;;6.32;;
74375;SDS011;62812;55.188;61.302;2023-02-01T00:15:11;15.10;;;6.68;;
74375;SDS011;62812;55.188;61.302;2023-02-01T00:17:37;15.80;;;6.05;;
74375;SDS011;62812;55.188;61.302;2023-02-01T00:20:04;14.60;;;6.15;;
74375;SDS011;62812;55.188;61.302;2023-02-01T00:22:31;20.52;;;6.80;;
74375;SDS011;62812;55.188;61.302;2023-02-01T00:24:57;17.13;;;6.28;;
74375;SDS011;62812;55.188;61.302;2023-02-01T00:27:24;17.77;;;7.05;;
74375;SDS011;62812;55.188;61.302;2023-02-01T00:29:53;16.60;;;6.13;;
74375;SDS011;62812;55.188;61.302;2023-02-01T00:32:20;18.20;;;6.07;;
74375;SDS011;62812;55.188;61.302;2023-02-01T00:34:46;19.88;;;7.38;;
74375;SDS011;62812;55.188;61.302;2023-02-01T00:37:13;19.10;;;7.30;;
74375;SDS011;62812;55.188;61.302;2023-02-01T00:39:39;17.02;;;5.97;;
74375;SDS011;62812;55.188;61.302;2023-02-01T00:42:05;19.92;;;6.93;;
74375;SDS011;62812;55.188;61.302;2023-02-01T00:44:32;16.63;;;6.03;;
74375;SDS011;62812;55.188;61.302;2023-02-01T00:47:02;16.42;;;6.85;;
74375;SDS011;62812;55.188;61.302;2023-02-01T00:49:28;16.27;;;6.57;;
74375;SDS011;62812;55.188;61.302;2023-02-01T00:51:55;15.73;;;6.43;;
74375;SDS011;62812;55.188;61.302;2023-02-01T00:54:22;13.50;;;6.00;;
74375;SDS011;62812;55.188;61.302;2023-02-01T00:56:48;16.60;;;6.03;;
74375;SDS011;62812;55.188;61.302;2023-02-01T00:59:15;16.83;;;6.78;;
74375;SDS011;62812;55.188;61.302;2023-02-01T01:01:41;16.30;;;6.03;;
74375;SDS011;62812;55.188;61.302;2023-02-01T01:04:09;16.08;;;6.25;;
74375;SDS011;62812;55.188;61.302;2023-02-01T01:06:35;14.07;;;6.05;;
74375;SDS011;62812;55.188;61.302;2023-02-01T01:09:03;18.25;;;6.50;;
74375;SDS011;62812;55.188;61.302;2023-02-01T01:11:31;15.38;;;5.75;;
74375;SDS011;62812;55.188;61.302;2023-02-01T01:13:59;17.77;;;6.60;;
74375;SDS011;62812;55.188;61.302;2023-02-01T01:16:26;19.77;;;6.72;;
74375;SDS011;62812;55.188;61.302;2023-02-01T01:18:54;16.58;;;6.03;;
74375;SDS011;62812;55.188;61.302;2023-02-01T01:21:23;16.00;;;6.20;;
74375;SDS011;62812;55.188;61.302;2023-02-01T01:23:49;17.80;;;6.22;;
74375;SDS011;62812;55.188;61.302;2023-02-01T01:26:17;14.30;;;6.47;;
74375;SDS011;62812;55.188;61.302;2023-02-01T01:28:45;14.70;;;5.93;;
74375;SDS011;62812;55.188;61.302;2023-02-01T01:31:12;13.98;;;6.18;;
74375;SDS011;62812;55.188;61.302;2023-02-01T01:33:41;15.60;;;5.82;;
74375;SDS011;62812;55.188;61.302;2023-02-01T01:36:09;18.73;;;6.72;;
74375;SDS011;62812;55.188;61.302;2023-02-01T01:38:38;15.85;;;6.00;;
74375;SDS011;62812;55.188;61.302;2023-02-01T01:41:06;16.95;;;6.28;;
74375;SDS011;62812;55.188;61.302;2023-02-01T01:43:46;14.30;;;5.95;;
74375;SDS011;62812;55.188;61.302;2023-02-01T01:46:16;16.00;;;6.45;;
74375;SDS011;62812;55.188;61.302;2023-02-01T01:48:43;20.85;;;7.43;;
74375;SDS011;62812;55.188;61.302;2023-02-01T01:51:10;15.77;;;6.75;;
74375;SDS011;62812;55.188;61.302;2023-02-01T01:53:42;22.50;;;6.07;;
74375;SDS011;62812;55.188;61.302;2023-02-01T01:56:13;14.02;;;5.68;;
74375;SDS011;62812;55.188;61.302;2023-02-01T01:58:40;16.08;;;5.97;;
74375;SDS011;62812;55.188;61.302;2023-02-01T02:01:08;18.15;;;6.07;;
74375;SDS011;62812;55.188;61.302;2023-02-01T02:03:35;16.33;;;6.10;;
74375;SDS011;62812;55.188;61.302;2023-02-01T02:06:07;16.20;;;6.18;;
74375;SDS011;62812;55.188;61.302;2023-02-01T02:08:43;14.85;;;6.00;;
74375;SDS011;62812;55.188;61.302;2023-02-01T02:11:10;17.63;;;7.22;;
74375;SDS011;62812;55.188;61.302;2023-02-01T02:13:42;15.98;;;6.80;;
74375;SDS011;62812;55.188;61.302;2023-02-01T02:16:24;20.48;;;8.63;;
74375;SDS011;62812;55.188;61.302;2023-02-01T02:19:11;18.10;;;7.05;;
74375;SDS011;62812;55.188;61.302;2023-02-01T02:21:56;19.33;;;7.13;;
74375;SDS011;62812;55.188;61.302;2023-02-01T02:24:51;19.45;;;6.60;;
74375;SDS011;62812;55.188;61.302;2023-02-01T02:27:34;16.23;;;6.75;;
74375;SDS011;62812;55.188;61.302;2023-02-01T02:30:18;18.10;;;6.20;;
74375;SDS011;62812;55.188;61.302;2023-02-01T02:33:16;16.73;;;6.50;;
74375;SDS011;62812;55.188;61.302;2023-02-01T02:36:04;22.65;;;9.18;;
74375;SDS011;62812;55.188;61.302;2023-02-01T02:38:36;17.65;;;6.75;;
74375;SDS011;62812;55.188;61.302;2023-02-01T02:41:12;18.63;;;7.07;;
74375;SDS011;62812;55.188;61.302;2023-02-01T02:44:08;18.80;;;7.68;;
74375;SDS011;62812;55.188;61.302;2023-02-01T02:46:59;16.15;;;6.82;;
74375;SDS011;62812;55.188;61.302;2023-02-01T02:49:51;15.77;;;6.95;;
74375;SDS011;62812;55.188;61.302;2023-02-01T02:55:28;19.10;;;7.05;;
74375;SDS011;62812;55.188;61.302;2023-02-01T02:57:59;17.55;;;6.50;;
74375;SDS011;62812;55.188;61.302;2023-02-01T03:00:44;24.58;;;9.32;;
74375;SDS011;62812;55.188;61.302;2023-02-01T03:03:30;16.70;;;7.13;;
74375;SDS011;62812;55.188;61.302;2023-02-01T03:06:16;17.55;;;6.93;;
74375;SDS011;62812;55.188;61.302;2023-02-01T03:08:44;20.38;;;6.90;;
74375;SDS011;62812;55.188;61.302;2023-02-01T03:11:11;19.15;;;7.40;;
74375;SDS011;62812;55.188;61.302;2023-02-01T03:13:41;16.50;;;6.57;;
74375;SDS011;62812;55.188;61.302;2023-02-01T03:16:12;21.92;;;7.88;;
74375;SDS011;62812;55.188;61.302;2023-02-01T03:18:46;15.60;;;6.72;;
74375;SDS011;62812;55.188;61.302;2023-02-01T03:21:18;17.25;;;6.95;;
74375;SDS011;62812;55.188;61.302;2023-02-01T03:23:48;18.63;;;6.97;;
74375;SDS011;62812;55.188;61.302;2023-02-01T03:26:16;18.98;;;7.60;;
74375;SDS011;62812;55.188;61.302;2023-02-01T03:28:47;20.75;;;7.43;;
74375;SDS011;62812;55.188;61.302;2023-02-01T03:31:17;18.85;;;6.88;;
74375;SDS011;62812;55.188;61.302;2023-02-01T03:33:44;17.48;;;5.97;;
74375;SDS011;62812;55.188;61.302;2023-02-01T03:36:14;20.23;;;7.85;;
74375;SDS011;62812;55.188;61.302;2023-02-01T03:38:47;18.88;;;7.20;;
74375;SDS011;62812;55.188;61.302;2023-02-01T03:41:19;25.80;;;7.95;;
74375;SDS011;62812;55.188;61.302;2023-02-01T03:43:53;21.50;;;8.05;;
74375;SDS011;62812;55.188;61.302;2023-02-01T03:46:25;23.40;;;6.80;;
74375;SDS011;62812;55.188;61.302;2023-02-01T03:48:59;19.15;;;7.22;;
74375;SDS011;62812;55.188;61.302;2023-02-01T03:51:34;18.58;;;7.53;;
74375;SDS011;62812;55.188;61.302;2023-02-01T03:54:03;16.27;;;6.53;;
74375;SDS011;62812;55.188;61.302;2023-02-01T03:56:32;19.65;;;7.13;;
74375;SDS011;62812;55.188;61.302;2023-02-01T03:59:02;23.48;;;7.15;;
74375;SDS011;62812;55.188;61.302;2023-02-01T04:01:29;21.13;;;8.48;;
74375;SDS011;62812;55.188;61.302;2023-02-01T04:03:56;20.42;;;7.65;;
74375;SDS011;62812;55.188;61.302;2023-02-01T04:06:23;18.15;;;7.68;;
74375;SDS011;62812;55.188;61.302;2023-02-01T04:08:51;21.55;;;8.70;;
74375;SDS011;62812;55.188;61.302;2023-02-01T04:11:19;17.52;;;7.60;;
74375;SDS011;62812;55.188;61.302;2023-02-01T04:13:45;22.90;;;7.80;;
74375;SDS011;62812;55.188;61.302;2023-02-01T04:16:12;25.20;;;8.65;;
74375;SDS011;62812;55.188;61.302;2023-02-01T04:18:41;23.88;;;8.23;;
74375;SDS011;62812;55.188;61.302;2023-02-01T04:21:08;18.05;;;7.47;;
74375;SDS011;62812;55.188;61.302;2023-02-01T04:23:34;18.88;;;7.07;;
74375;SDS011;62812;55.188;61.302;2023-02-01T04:26:02;17.33;;;7.22;;
74375;SDS011;62812;55.188;61.302;2023-02-01T04:28:31;17.52;;;6.55;;
74375;SDS011;62812;55.188;61.302;2023-02-01T04:30:57;17.80;;;7.70;;
74375;SDS011;62812;55.188;61.302;2023-02-01T04:33:24;18.85;;;6.53;;
74375;SDS011;62812;55.188;61.302;2023-02-01T04:35:50;16.75;;;6.85;;
74375;SDS011;62812;55.188;61.302;2023-02-01T04:38:17;15.45;;;6.50;;
74375;SDS011;62812;55.188;61.302;2023-02-01T04:40:46;15.13;;;6.85;;
74375;SDS011;62812;55.188;61.302;2023-02-01T04:43:13;15.35;;;6.72;;
74375;SDS011;62812;55.188;61.302;2023-02-01T04:45:41;15.60;;;7.15;;
74375;SDS011;62812;55.188;61.302;2023-02-01T04:48:07;16.05;;;6.63;;
74375;SDS011;62812;55.188;61.302;2023-02-01T04:50:33;14.45;;;6.70;;
74375;SDS011;62812;55.188;61.302;2023-02-01T04:53:00;15.55;;;5.97;;
74375;SDS011;62812;55.188;61.302;2023-02-01T04:55:26;18.05;;;7.95;;
74375;SDS011;62812;55.188;61.302;2023-02-01T04:57:53;18.77;;;6.82;;
74375;SDS011;62812;55.188;61.302;2023-02-01T05:00:19;15.40;;;5.85;;
74375;SDS011;62812;55.188;61.302;2023-02-01T05:02:50;14.63;;;5.80;;
74375;SDS011;62812;55.188;61.302;2023-02-01T05:05:17;18.75;;;5.88;;
74375;SDS011;62812;55.188;61.302;2023-02-01T05:07:43;13.93;;;4.97;;
74375;SDS011;62812;55.188;61.302;2023-02-01T05:10:11;13.20;;;5.82;;
74375;SDS011;62812;55.188;61.302;2023-02-01T05:12:38;15.60;;;5.32;;
74375;SDS011;62812;55.188;61.302;2023-02-01T05:15:23;15.60;;;5.80;;
74375;SDS011;62812;55.188;61.302;2023-02-01T05:17:52;17.13;;;5.93;;
74375;SDS011;62812;55.188;61.302;2023-02-01T05:20:18;15.57;;;5.38;;
74375;SDS011;62812;55.188;61.302;2023-02-01T05:22:44;18.98;;;6.97;;
74375;SDS011;62812;55.188;61.302;2023-02-01T05:25:11;20.17;;;6.63;;
74375;SDS011;62812;55.188;61.302;2023-02-01T05:27:40;20.15;;;6.68;;
74375;SDS011;62812;55.188;61.302;2023-02-01T05:30:07;19.52;;;7.22;;
74375;SDS011;62812;55.188;61.302;2023-02-01T05:32:37;19.65;;;5.85;;
74375;SDS011;62812;55.188;61.302;2023-02-01T05:35:05;15.80;;;6.85;;
74375;SDS011;62812;55.188;61.302;2023-02-01T05:37:32;20.67;;;7.72;;
74375;SDS011;62812;55.188;61.302;2023-02-01T05:40:01;22.95;;;7.00;;
74375;SDS011;62812;55.188;61.302;2023-02-01T05:42:28;21.67;;;8.13;;
74375;SDS011;62812;55.188;61.302;2023-02-01T05:44:54;21.38;;;7.80;;
74375;SDS011;62812;55.188;61.302;2023-02-01T05:47:21;17.70;;;6.93;;
74375;SDS011;62812;55.188;61.302;2023-02-01T05:49:47;21.00;;;8.38;;
74375;SDS011;62812;55.188;61.302;2023-02-01T05:52:16;19.92;;;7.47;;
74375;SDS011;62812;55.188;61.302;2023-02-01T05:57:11;21.30;;;7.35;;
74375;SDS011;62812;55.188;61.302;2023-02-01T05:59:38;19.27;;;7.55;;
74375;SDS011;62812;55.188;61.302;2023-02-01T06:02:10;21.30;;;7.20;;
74375;SDS011;62812;55.188;61.302;2023-02-01T06:04:37;19.10;;;7.85;;
74375;SDS011;62812;55.188;61.302;2023-02-01T06:07:04;22.35;;;8.15;;
74375;SDS011;62812;55.188;61.302;2023-02-01T06:09:34;19.33;;;7.80;;
74375;SDS011;62812;55.188;61.302;2023-02-01T06:12:01;17.00;;;7.32;;
74375;SDS011;62812;55.188;61.302;2023-02-01T06:14:27;19.08;;;6.95;;
74375;SDS011;62812;55.188;61.302;2023-02-01T06:16:54;21.08;;;7.10;;
74375;SDS011;62812;55.188;61.302;2023-02-01T06:19:21;17.50;;;6.82;;
74375;SDS011;62812;55.188;61.302;2023-02-01T06:21:47;15.68;;;7.18;;
74375;SDS011;62812;55.188;61.302;2023-02-01T06:24:15;19.67;;;7.30;;
74375;SDS011;62812;55.188;61.302;2023-02-01T06:26:43;21.92;;;6.97;;
74375;SDS011;62812;55.188;61.302;2023-02-01T06:29:11;20.25;;;7.95;;
74375;SDS011;62812;55.188;61.302;2023-02-01T06:31:38;18.15;;;6.57;;
74375;SDS011;62812;55.188;61.302;2023-02-01T06:34:05;15.57;;;6.50;;
74375;SDS011;62812;55.188;61.302;2023-02-01T06:36:31;15.80;;;6.45;;
74375;SDS011;62812;55.188;61.302;2023-02-01T06:38:58;14.85;;;6.38;;
74375;SDS011;62812;55.188;61.302;2023-02-01T06:41:25;17.60;;;7.28;;
74375;SDS011;62812;55.188;61.302;2023-02-01T06:43:54;18.67;;;7.75;;
74375;SDS011;62812;55.188;61.302;2023-02-01T06:46:20;18.25;;;6.80;;
74375;SDS011;62812;55.188;61.302;2023-02-01T06:48:47;20.13;;;6.95;;
74375;SDS011;62812;55.188;61.302;2023-02-01T06:51:18;21.40;;;6.45;;
74375;SDS011;62812;55.188;61.302;2023-02-01T06:53:46;15.60;;;6.88;;
74375;SDS011;62812;55.188;61.302;2023-02-01T06:56:12;16.17;;;6.40;;
74375;SDS011;62812;55.188;61.302;2023-02-01T06:58:39;16.45;;;7.32;;
74375;SDS011;62812;55.188;61.302;2023-02-01T07:01:07;15.60;;;5.93;;
74375;SDS011;62812;55.188;61.302;2023-02-01T07:03:37;17.60;;;7.05;;
74375;SDS011;62812;55.188;61.302;2023-02-01T07:06:04;18.58;;;6.95;;
74375;SDS011;62812;55.188;61.302;2023-02-01T07:08:33;22.73;;;8.60;;
74375;SDS011;62812;55.188;61.302;2023-02-01T07:11:01;20.83;;;7.35;;
74375;SDS011;62812;55.188;61.302;2023-02-01T07:13:28;23.88;;;7.90;;
74375;SDS011;62812;55.188;61.302;2023-02-01T07:15:57;18.20;;;7.50;;
74375;SDS011;62812;55.188;61.302;2023-02-01T07:18:25;22.83;;;8.68;;
74375;SDS011;62812;55.188;61.302;2023-02-01T07:20:52;24.48;;;9.15;;
74375;SDS011;62812;55.188;61.302;2023-02-01T07:23:19;27.98;;;10.00;;
74375;SDS011;62812;55.188;61.302;2023-02-01T07:25:45;29.48;;;11.27;;
74375;SDS011;62812;55.188;61.302;2023-02-01T07:28:12;22.15;;;9.75;;
74375;SDS011;62812;55.188;61.302;2023-02-01T07:30:39;29.48;;;10.02;;
74375;SDS011;62812;55.188;61.302;2023-02-01T07:33:06;25.58;;;9.52;;
74375;SDS011;62812;55.188;61.302;2023-02-01T07:35:34;28.15;;;11.07;;
74375;SDS011;62812;55.188;61.302;2023-02-01T07:38:02;26.42;;;11.07;;
74375;SDS011;62812;55.188;61.302;2023-02-01T07:40:29;24.33;;;9.80;;
74375;SDS011;62812;55.188;61.302;2023-02-01T07:42:56;22.42;;;10.32;;
74375;SDS011;62812;55.188;61.302;2023-02-01T07:45:22;32.17;;;11.05;;
74375;SDS011;62812;55.188;61.302;2023-02-01T07:47:51;29.88;;;10.75;;
74375;SDS011;62812;55.188;61.302;2023-02-01T07:50:19;28.08;;;10.68;;
74375;SDS011;62812;55.188;61.302;2023-02-01T07:52:47;29.80;;;9.90;;
74375;SDS011;62812;55.188;61.302;2023-02-01T07:55:13;27.88;;;10.75;;
74375;SDS011;62812;55.188;61.302;2023-02-01T07:57:40;21.52;;;9.82;;
74375;SDS011;62812;55.188;61.302;2023-02-01T08:00:08;23.25;;;10.13;;
74375;SDS011;62812;55.188;61.302;2023-02-01T08:02:54;28.00;;;10.80;;
74375;SDS011;62812;55.188;61.302;2023-02-01T08:05:23;24.52;;;10.38;;
74375;SDS011;62812;55.188;61.302;2023-02-01T08:07:50;30.83;;;10.50;;
74375;SDS011;62812;55.188;61.302;2023-02-01T08:10:17;32.15;;;11.13;;
74375;SDS011;62812;55.188;61.302;2023-02-01T08:12:45;24.40;;;10.27;;
74375;SDS011;62812;55.188;61.302;2023-02-01T08:15:17;32.30;;;10.73;;
74375;SDS011;62812;55.188;61.302;2023-02-01T08:17:47;32.42;;;11.18;;
74375;SDS011;62812;55.188;61.302;2023-02-01T08:20:14;30.13;;;10.88;;
74375;SDS011;62812;55.188;61.302;2023-02-01T08:22:40;27.45;;;10.77;;
74375;SDS011;62812;55.188;61.302;2023-02-01T08:25:08;37.00;;;10.55;;
74375;SDS011;62812;55.188;61.302;2023-02-01T08:27:35;29.40;;;10.10;;
74375;SDS011;62812;55.188;61.302;2023-02-01T08:30:03;26.88;;;10.48;;
74375;SDS011;62812;55.188;61.302;2023-02-01T08:32:30;29.50;;;11.10;;
74375;SDS011;62812;55.188;61.302;2023-02-01T08:34:57;32.95;;;11.52;;
74375;SDS011;62812;55.188;61.302;2023-02-01T08:37:23;24.35;;;10.18;;
74375;SDS011;62812;55.188;61.302;2023-02-01T08:39:49;32.70;;;11.30;;
74375;SDS011;62812;55.188;61.302;2023-02-01T08:42:17;29.23;;;10.35;;
74375;SDS011;62812;55.188;61.302;2023-02-01T08:45:04;26.13;;;9.73;;
74375;SDS011;62812;55.188;61.302;2023-02-01T08:47:33;27.48;;;10.85;;
74375;SDS011;62812;55.188;61.302;2023-02-01T08:50:00;29.90;;;10.02;;
74375;SDS011;62812;55.188;61.302;2023-02-01T08:52:26;26.65;;;10.25;;
74375;SDS011;62812;55.188;61.302;2023-02-01T08:54:53;28.20;;;9.90;;
74375;SDS011;62812;55.188;61.302;2023-02-01T08:57:21;29.75;;;10.88;;
74375;SDS011;62812;55.188;61.302;2023-02-01T08:59:47;31.48;;;10.73;;
74375;SDS011;62812;55.188;61.302;2023-02-01T09:02:14;33.38;;;10.63;;
74375;SDS011;62812;55.188;61.302;2023-02-01T09:04:41;26.38;;;10.32;;
74375;SDS011;62812;55.188;61.302;2023-02-01T09:07:08;30.63;;;10.25;;
74375;SDS011;62812;55.188;61.302;2023-02-01T09:09:35;26.50;;;11.43;;
74375;SDS011;62812;55.188;61.302;2023-02-01T09:12:04;30.75;;;10.65;;
74375;SDS011;62812;55.188;61.302;2023-02-01T09:14:35;26.65;;;11.43;;
74375;SDS011;62812;55.188;61.302;2023-02-01T09:17:01;26.02;;;10.57;;
74375;SDS011;62812;55.188;61.302;2023-02-01T09:19:28;37.92;;;10.73;;
74375;SDS011;62812;55.188;61.302;2023-02-01T09:21:58;27.15;;;10.27;;
74375;SDS011;62812;55.188;61.302;2023-02-01T09:24:25;26.40;;;11.30;;
74375;SDS011;62812;55.188;61.302;2023-02-01T09:26:51;31.55;;;10.65;;
74375;SDS011;62812;55.188;61.302;2023-02-01T09:29:18;29.40;;;11.88;;
74375;SDS011;62812;55.188;61.302;2023-02-01T09:31:46;23.92;;;9.90;;
74375;SDS011;62812;55.188;61.302;2023-02-01T09:34:12;42.65;;;12.70;;
74375;SDS011;62812;55.188;61.302;2023-02-01T09:36:38;35.20;;;11.63;;
74375;SDS011;62812;55.188;61.302;2023-02-01T09:39:05;30.65;;;11.82;;
74375;SDS011;62812;55.188;61.302;2023-02-01T09:41:43;30.30;;;10.75;;
74375;SDS011;62812;55.188;61.302;2023-02-01T09:44:21;32.35;;;12.95;;
74375;SDS011;62812;55.188;61.302;2023-02-01T09:46:59;27.88;;;10.30;;
74375;SDS011;62812;55.188;61.302;2023-02-01T09:49:27;34.55;;;11.38;;
74375;SDS011;62812;55.188;61.302;2023-02-01T09:54:24;25.63;;;9.98;;
74375;SDS011;62812;55.188;61.302;2023-02-01T09:56:53;28.02;;;10.48;;
74375;SDS011;62812;55.188;61.302;2023-02-01T09:59:28;34.47;;;9.75;;
74375;SDS011;62812;55.188;61.302;2023-02-01T10:02:00;28.17;;;10.55;;
74375;SDS011;62812;55.188;61.302;2023-02-01T10:04:31;36.92;;;9.95;;
74375;SDS011;62812;55.188;61.302;2023-02-01T10:09:35;31.25;;;10.48;;
74375;SDS011;62812;55.188;61.302;2023-02-01T10:15:15;23.52;;;9.38;;
74375;SDS011;62812;55.188;61.302;2023-02-01T10:17:57;31.45;;;10.35;;
74375;SDS011;62812;55.188;61.302;2023-02-01T10:20:36;35.47;;;12.30;;
74375;SDS011;62812;55.188;61.302;2023-02-01T10:23:18;38.97;;;12.02;;
74375;SDS011;62812;55.188;61.302;2023-02-01T10:25:59;31.35;;;10.93;;
74375;SDS011;62812;55.188;61.302;2023-02-01T10:28:32;34.80;;;12.07;;
74375;SDS011;62812;55.188;61.302;2023-02-01T10:31:02;40.70;;;12.38;;
74375;SDS011;62812;55.188;61.302;2023-02-01T10:33:32;33.92;;;11.05;;
74375;SDS011;62812;55.188;61.302;2023-02-01T10:36:01;38.17;;;12.75;;
74375;SDS011;62812;55.188;61.302;2023-02-01T10:38:36;33.05;;;12.00;;
74375;SDS011;62812;55.188;61.302;2023-02-01T10:41:03;38.85;;;12.63;;
74375;SDS011;62812;55.188;61.302;2023-02-01T10:43:37;47.38;;;13.38;;
74375;SDS011;62812;55.188;61.302;2023-02-01T10:46:04;35.17;;;12.50;;
74375;SDS011;62812;55.188;61.302;2023-02-01T10:48:34;41.63;;;13.43;;
74375;SDS011;62812;55.188;61.302;2023-02-01T10:51:05;36.17;;;11.45;;
74375;SDS011;62812;55.188;61.302;2023-02-01T10:53:33;27.67;;;11.52;;
74375;SDS011;62812;55.188;61.302;2023-02-01T10:56:05;30.73;;;9.68;;
74375;SDS011;62812;55.188;61.302;2023-02-01T10:58:33;27.33;;;10.02;;
74375;SDS011;62812;55.188;61.302;2023-02-01T11:01:03;28.00;;;9.70;;
74375;SDS011;62812;55.188;61.302;2023-02-01T11:03:38;22.52;;;8.75;;
74375;SDS011;62812;55.188;61.302;2023-02-01T11:06:13;20.08;;;8.15;;
74375;SDS011;62812;55.188;61.302;2023-02-01T11:08:45;22.75;;;8.15;;
74375;SDS011;62812;55.188;61.302;2023-02-01T11:11:14;24.33;;;8.57;;
74375;SDS011;62812;55.188;61.302;2023-02-01T11:13:43;27.23;;;8.65;;
74375;SDS011;62812;55.188;61.302;2023-02-01T11:16:11;27.75;;;10.10;;
74375;SDS011;62812;55.188;61.302;2023-02-01T11:18:41;32.63;;;12.07;;
74375;SDS011;62812;55.188;61.302;2023-02-01T11:21:08;41.47;;;13.55;;
74375;SDS011;62812;55.188;61.302;2023-02-01T11:23:39;38.72;;;14.18;;
74375;SDS011;62812;55.188;61.302;2023-02-01T11:26:10;37.55;;;13.27;;
74375;SDS011;62812;55.188;61.302;2023-02-01T11:28:41;40.22;;;14.80;;
74375;SDS011;62812;55.188;61.302;2023-02-01T11:31:13;40.25;;;14.98;;
74375;SDS011;62812;55.188;61.302;2023-02-01T11:33:44;48.58;;;15.57;;
74375;SDS011;62812;55.188;61.302;2023-02-01T11:36:15;49.28;;;17.25;;
74375;SDS011;62812;55.188;61.302;2023-02-01T11:38:45;52.30;;;16.85;;
74375;SDS011;62812;55.188;61.302;2023-02-01T11:41:20;50.67;;;18.13;;
74375;SDS011;62812;55.188;61.302;2023-02-01T11:43:54;59.90;;;18.27;;
74375;SDS011;62812;55.188;61.302;2023-02-01T11:46:26;63.45;;;20.83;;
74375;SDS011;62812;55.188;61.302;2023-02-01T11:48:56;53.45;;;18.63;;
74375;SDS011;62812;55.188;61.302;2023-02-01T11:51:42;52.58;;;16.88;;
74375;SDS011;62812;55.188;61.302;2023-02-01T11:54:26;44.92;;;16.65;;
74375;SDS011;62812;55.188;61.302;2023-02-01T11:57:13;46.58;;;15.77;;
74375;SDS011;62812;55.188;61.302;2023-02-01T12:00:02;54.25;;;20.88;;
74375;SDS011;62812;55.188;61.302;2023-02-01T12:02:54;46.30;;;17.65;;
74375;SDS011;62812;55.188;61.302;2023-02-01T12:05:48;47.97;;;17.33;;
74375;SDS011;62812;55.188;61.302;2023-02-01T12:08:26;53.28;;;17.88;;
74375;SDS011;62812;55.188;61.302;2023-02-01T12:11:16;46.22;;;17.10;;
74375;SDS011;62812;55.188;61.302;2023-02-01T12:13:53;52.88;;;17.30;;
74375;SDS011;62812;55.188;61.302;2023-02-01T12:16:29;60.13;;;19.63;;
74375;SDS011;62812;55.188;61.302;2023-02-01T12:19:11;65.65;;;23.08;;
74375;SDS011;62812;55.188;61.302;2023-02-01T12:22:06;68.63;;;25.30;;
74375;SDS011;62812;55.188;61.302;2023-02-01T12:24:52;97.50;;;33.60;;
74375;SDS011;62812;55.188;61.302;2023-02-01T12:27:45;93.00;;;33.28;;
74375;SDS011;62812;55.188;61.302;2023-02-01T12:36:55;77.75;;;28.58;;
74375;SDS011;62812;55.188;61.302;2023-02-01T12:39:31;75.38;;;26.98;;
74375;SDS011;62812;55.188;61.302;2023-02-01T12:42:00;66.70;;;28.20;;
74375;SDS011;62812;55.188;61.302;2023-02-01T12:47:35;83.57;;;30.15;;
74375;SDS011;62812;55.188;61.302;2023-02-01T12:50:12;74.88;;;28.90;;
74375;SDS011;62812;55.188;61.302;2023-02-01T12:52:53;64.60;;;28.48;;
74375;SDS011;62812;55.188;61.302;2023-02-01T12:55:46;71.10;;;28.85;;
74375;SDS011;62812;55.188;61.302;2023-02-01T13:01:12;73.00;;;27.40;;
74375;SDS011;62812;55.188;61.302;2023-02-01T13:03:43;81.65;;;28.63;;
74375;SDS011;62812;55.188;61.302;2023-02-01T13:06:24;85.68;;;32.65;;
74375;SDS011;62812;55.188;61.302;2023-02-01T13:08:54;90.85;;;39.15;;
74375;SDS011;62812;55.188;61.302;2023-02-01T13:11:39;87.65;;;40.38;;
74375;SDS011;62812;55.188;61.302;2023-02-01T13:14:24;101.75;;;40.15;;
74375;SDS011;62812;55.188;61.302;2023-02-01T13:16:57;73.07;;;28.42;;
74375;SDS011;62812;55.188;61.302;2023-02-01T13:19:28;66.20;;;23.15;;
74375;SDS011;62812;55.188;61.302;2023-02-01T13:22:02;66.03;;;23.00;;
74375;SDS011;62812;55.188;61.302;2023-02-01T13:24:35;52.40;;;21.88;;
74375;SDS011;62812;55.188;61.302;2023-02-01T13:27:13;54.75;;;18.58;;
74375;SDS011;62812;55.188;61.302;2023-02-01T13:29:44;56.47;;;18.73;;
74375;SDS011;62812;55.188;61.302;2023-02-01T13:32:27;50.67;;;19.38;;
74375;SDS011;62812;55.188;61.302;2023-02-01T13:35:19;50.38;;;18.33;;
74375;SDS011;62812;55.188;61.302;2023-02-01T13:38:24;64.35;;;26.02;;
74375;SDS011;62812;55.188;61.302;2023-02-01T13:41:09;47.17;;;17.80;;
74375;SDS011;62812;55.188;61.302;2023-02-01T13:43:48;55.70;;;18.52;;
74375;SDS011;62812;55.188;61.302;2023-02-01T13:46:18;59.90;;;19.08;;
74375;SDS011;62812;55.188;61.302;2023-02-01T13:48:46;63.25;;;25.23;;
74375;SDS011;62812;55.188;61.302;2023-02-01T13:51:16;56.90;;;20.27;;
74375;SDS011;62812;55.188;61.302;2023-02-01T13:54:00;57.80;;;21.13;;
74375;SDS011;62812;55.188;61.302;2023-02-01T13:56:27;57.67;;;21.52;;
74375;SDS011;62812;55.188;61.302;2023-02-01T13:58:55;70.65;;;23.88;;
74375;SDS011;62812;55.188;61.302;2023-02-01T14:07:25;51.03;;;17.45;;
74375;SDS011;62812;55.188;61.302;2023-02-01T14:09:55;47.13;;;17.08;;
74375;SDS011;62812;55.188;61.302;2023-02-01T14:15:20;45.55;;;15.50;;
74375;SDS011;62812;55.188;61.302;2023-02-01T14:17:48;45.35;;;16.88;;
74375;SDS011;62812;55.188;61.302;2023-02-01T14:23:11;53.88;;;19.40;;
74375;SDS011;62812;55.188;61.302;2023-02-01T14:25:45;62.22;;;19.17;;
74375;SDS011;62812;55.188;61.302;2023-02-01T14:28:24;58.78;;;19.45;;
74375;SDS011;62812;55.188;61.302;2023-02-01T14:30:59;91.05;;;26.90;;
74375;SDS011;62812;55.188;61.302;2023-02-01T14:33:26;98.85;;;31.23;;
74375;SDS011;62812;55.188;61.302;2023-02-01T14:36:00;91.18;;;27.95;;
74375;SDS011;62812;55.188;61.302;2023-02-01T14:38:31;69.57;;;24.20;;
74375;SDS011;62812;55.188;61.302;2023-02-01T14:41:11;79.38;;;24.75;;
74375;SDS011;62812;55.188;61.302;2023-02-01T14:43:50;62.20;;;19.52;;
74375;SDS011;62812;55.188;61.302;2023-02-01T14:46:20;58.97;;;21.05;;
74375;SDS011;62812;55.188;61.302;2023-02-01T14:49:28;60.20;;;19.85;;
74375;SDS011;62812;55.188;61.302;2023-02-01T14:51:56;50.90;;;19.40;;
74375;SDS011;62812;55.188;61.302;2023-02-01T14:54:23;53.55;;;19.17;;
74375;SDS011;62812;55.188;61.302;2023-02-01T14:56:50;51.92;;;21.15;;
74375;SDS011;62812;55.188;61.302;2023-02-01T14:59:17;57.60;;;20.92;;
74375;SDS011;62812;55.188;61.302;2023-02-01T15:01:52;55.15;;;21.00;;
74375;SDS011;62812;55.188;61.302;2023-02-01T15:04:24;63.38;;;22.00;;
74375;SDS011;62812;55.188;61.302;2023-02-01T15:06:52;75.43;;;26.02;;
74375;SDS011;62812;55.188;61.302;2023-02-01T15:09:24;80.28;;;28.85;;
74375;SDS011;62812;55.188;61.302;2023-02-01T15:11:57;84.95;;;26.55;;
74375;SDS011;62812;55.188;61.302;2023-02-01T15:14:26;88.95;;;29.92;;
74375;SDS011;62812;55.188;61.302;2023-02-01T15:16:56;83.13;;;28.67;;